sensor_id;sensor_type;location;lat;lon;timestamp;temperature;humidity
17307;DHT22;8771;48.048;7.682;2023-06-10T00:03:39;21.80;51.70
17307;DHT22;8771;48.048;7.682;2023-06-10T00:08:43;21.70;51.70
17307;DHT22;8771;48.048;7.682;2023-06-10T00:13:49;21.60;51.80
17307;DHT22;8771;48.048;7.682;2023-06-10T00:18:51;21.50;51.90
17307;DHT22;8771;48.048;7.682;2023-06-10T00:23:53;21.50;52.00
17307;DHT22;8771;48.048;7.682;2023-06-10T00:28:57;21.50;51.90
17307;DHT22;8771;48.048;7.682;2023-06-10T00:33:59;21.50;51.90
17307;DHT22;8771;48.048;7.682;2023-06-10T00:39:01;21.50;51.90
17307;DHT22;8771;48.048;7.682;2023-06-10T00:44:07;21.50;51.90
17307;DHT22;8771;48.048;7.682;2023-06-10T00:49:09;21.40;51.90
17307;DHT22;8771;48.048;7.682;2023-06-10T00:54:12;21.40;52.00
17307;DHT22;8771;48.048;7.682;2023-06-10T00:59:15;21.40;52.00
17307;DHT22;8771;48.048;7.682;2023-06-10T01:04:17;21.30;52.00
17307;DHT22;8771;48.048;7.682;2023-06-10T01:09:25;21.30;52.10
17307;DHT22;8771;48.048;7.682;2023-06-10T01:14:31;21.20;52.20
17307;DHT22;8771;48.048;7.682;2023-06-10T01:19:33;21.10;52.30
17307;DHT22;8771;48.048;7.682;2023-06-10T01:24:38;21.00;52.40
17307;DHT22;8771;48.048;7.682;2023-06-10T01:29:43;20.90;52.50
17307;DHT22;8771;48.048;7.682;2023-06-10T01:34:48;20.80;52.50
17307;DHT22;8771;48.048;7.682;2023-06-10T01:39:52;20.70;52.50
17307;DHT22;8771;48.048;7.682;2023-06-10T01:44:56;20.70;52.60
17307;DHT22;8771;48.048;7.682;2023-06-10T01:49:58;20.60;52.70
17307;DHT22;8771;48.048;7.682;2023-06-10T01:55:01;20.50;52.80
17307;DHT22;8771;48.048;7.682;2023-06-10T02:00:04;20.40;53.00
17307;DHT22;8771;48.048;7.682;2023-06-10T02:05:07;20.30;53.00
17307;DHT22;8771;48.048;7.682;2023-06-10T02:10:10;20.20;53.00
17307;DHT22;8771;48.048;7.682;2023-06-10T02:15:12;20.20;53.00
17307;DHT22;8771;48.048;7.682;2023-06-10T02:20:14;20.10;53.00
17307;DHT22;8771;48.048;7.682;2023-06-10T02:25:18;20.00;53.20
17307;DHT22;8771;48.048;7.682;2023-06-10T02:30:20;19.90;53.30
17307;DHT22;8771;48.048;7.682;2023-06-10T02:35:22;19.90;53.30
17307;DHT22;8771;48.048;7.682;2023-06-10T02:40:26;19.80;53.40
17307;DHT22;8771;48.048;7.682;2023-06-10T02:45:28;19.80;53.40
17307;DHT22;8771;48.048;7.682;2023-06-10T02:50:30;19.80;53.50
17307;DHT22;8771;48.048;7.682;2023-06-10T02:55:33;19.70;53.50
17307;DHT22;8771;48.048;7.682;2023-06-10T03:00:36;19.70;54.10
17307;DHT22;8771;48.048;7.682;2023-06-10T03:05:41;19.60;53.60
17307;DHT22;8771;48.048;7.682;2023-06-10T03:10:44;19.50;53.70
17307;DHT22;8771;48.048;7.682;2023-06-10T03:15:46;19.40;53.70
17307;DHT22;8771;48.048;7.682;2023-06-10T03:20:48;19.40;53.80
17307;DHT22;8771;48.048;7.682;2023-06-10T03:25:53;19.30;53.80
17307;DHT22;8771;48.048;7.682;2023-06-10T03:30:55;19.30;53.80
17307;DHT22;8771;48.048;7.682;2023-06-10T03:35:57;19.30;53.90
17307;DHT22;8771;48.048;7.682;2023-06-10T03:41:01;19.20;53.90
17307;DHT22;8771;48.048;7.682;2023-06-10T03:46:02;19.10;54.00
17307;DHT22;8771;48.048;7.682;2023-06-10T03:51:04;19.00;54.10
17307;DHT22;8771;48.048;7.682;2023-06-10T03:56:08;18.90;54.20
17307;DHT22;8771;48.048;7.682;2023-06-10T04:01:10;18.90;54.30
17307;DHT22;8771;48.048;7.682;2023-06-10T04:06:13;18.90;54.30
17307;DHT22;8771;48.048;7.682;2023-06-10T04:11:17;18.90;54.20
17307;DHT22;8771;48.048;7.682;2023-06-10T04:16:20;19.00;54.30
17307;DHT22;8771;48.048;7.682;2023-06-10T04:21:22;19.00;54.20
17307;DHT22;8771;48.048;7.682;2023-06-10T04:26:27;19.10;54.20
17307;DHT22;8771;48.048;7.682;2023-06-10T04:31:29;19.10;54.10
17307;DHT22;8771;48.048;7.682;2023-06-10T04:36:32;19.10;54.10
17307;DHT22;8771;48.048;7.682;2023-06-10T04:41:36;19.20;54.10
17307;DHT22;8771;48.048;7.682;2023-06-10T04:46:38;19.30;54.00
17307;DHT22;8771;48.048;7.682;2023-06-10T04:51:40;19.50;53.90
17307;DHT22;8771;48.048;7.682;2023-06-10T04:56:43;19.80;53.60
17307;DHT22;8771;48.048;7.682;2023-06-10T05:01:45;20.20;53.30
17307;DHT22;8771;48.048;7.682;2023-06-10T05:06:47;20.50;53.10
17307;DHT22;8771;48.048;7.682;2023-06-10T05:11:51;20.80;52.90
17307;DHT22;8771;48.048;7.682;2023-06-10T05:16:54;21.10;52.60
17307;DHT22;8771;48.048;7.682;2023-06-10T05:21:56;21.40;52.50
17307;DHT22;8771;48.048;7.682;2023-06-10T05:26:59;21.60;52.40
17307;DHT22;8771;48.048;7.682;2023-06-10T05:32:01;21.80;52.20
17307;DHT22;8771;48.048;7.682;2023-06-10T05:37:04;22.00;52.10
17307;DHT22;8771;48.048;7.682;2023-06-10T05:42:08;22.30;52.00
17307;DHT22;8771;48.048;7.682;2023-06-10T05:47:11;22.60;51.90
17307;DHT22;8771;48.048;7.682;2023-06-10T05:52:12;22.80;51.80
17307;DHT22;8771;48.048;7.682;2023-06-10T05:57:16;23.00;51.70
17307;DHT22;8771;48.048;7.682;2023-06-10T06:02:18;23.20;51.60
17307;DHT22;8771;48.048;7.682;2023-06-10T06:07:20;23.40;51.50
17307;DHT22;8771;48.048;7.682;2023-06-10T06:12:23;23.70;51.40
17307;DHT22;8771;48.048;7.682;2023-06-10T06:17:25;24.10;51.20
17307;DHT22;8771;48.048;7.682;2023-06-10T06:22:27;24.20;51.10
17307;DHT22;8771;48.048;7.682;2023-06-10T06:27:31;24.40;51.10
17307;DHT22;8771;48.048;7.682;2023-06-10T06:32:33;24.60;50.90
17307;DHT22;8771;48.048;7.682;2023-06-10T06:37:36;24.80;50.90
17307;DHT22;8771;48.048;7.682;2023-06-10T06:42:39;24.90;50.90
17307;DHT22;8771;48.048;7.682;2023-06-10T06:47:41;25.00;51.00
17307;DHT22;8771;48.048;7.682;2023-06-10T06:52:43;25.30;50.90
17307;DHT22;8771;48.048;7.682;2023-06-10T06:57:46;25.50;50.70
17307;DHT22;8771;48.048;7.682;2023-06-10T07:02:48;25.90;50.60
17307;DHT22;8771;48.048;7.682;2023-06-10T07:07:50;26.10;50.40
17307;DHT22;8771;48.048;7.682;2023-06-10T07:12:56;26.30;50.40
17307;DHT22;8771;48.048;7.682;2023-06-10T07:17:58;26.40;50.40
17307;DHT22;8771;48.048;7.682;2023-06-10T07:23:00;26.40;50.50
17307;DHT22;8771;48.048;7.682;2023-06-10T07:28:04;26.70;50.50
17307;DHT22;8771;48.048;7.682;2023-06-10T07:33:06;26.90;50.40
17307;DHT22;8771;48.048;7.682;2023-06-10T07:38:08;27.20;50.30
17307;DHT22;8771;48.048;7.682;2023-06-10T07:43:11;27.40;50.20
17307;DHT22;8771;48.048;7.682;2023-06-10T07:48:13;27.70;50.10
17307;DHT22;8771;48.048;7.682;2023-06-10T07:53:15;28.00;50.10
17307;DHT22;8771;48.048;7.682;2023-06-10T07:58:18;28.10;50.00
17307;DHT22;8771;48.048;7.682;2023-06-10T08:03:21;28.20;49.90
17307;DHT22;8771;48.048;7.682;2023-06-10T08:08:23;28.20;50.20
17307;DHT22;8771;48.048;7.682;2023-06-10T08:13:26;28.20;50.30
17307;DHT22;8771;48.048;7.682;2023-06-10T08:18:28;28.10;50.50
17307;DHT22;8771;48.048;7.682;2023-06-10T08:23:30;28.10;50.50
17307;DHT22;8771;48.048;7.682;2023-06-10T08:28:33;28.00;50.70
17307;DHT22;8771;48.048;7.682;2023-06-10T08:33:35;28.20;50.70
17307;DHT22;8771;48.048;7.682;2023-06-10T08:38:37;28.30;50.60
17307;DHT22;8771;48.048;7.682;2023-06-10T08:43:43;28.40;50.50
17307;DHT22;8771;48.048;7.682;2023-06-10T08:48:48;28.50;50.50
17307;DHT22;8771;48.048;7.682;2023-06-10T08:53:55;28.80;50.30
17307;DHT22;8771;48.048;7.682;2023-06-10T08:59:02;29.10;50.20
17307;DHT22;8771;48.048;7.682;2023-06-10T09:04:04;29.40;50.00
17307;DHT22;8771;48.048;7.682;2023-06-10T09:09:06;29.40;49.90
17307;DHT22;8771;48.048;7.682;2023-06-10T09:14:10;29.50;49.90
17307;DHT22;8771;48.048;7.682;2023-06-10T09:19:14;29.50;50.00
17307;DHT22;8771;48.048;7.682;2023-06-10T09:24:17;29.40;50.20
17307;DHT22;8771;48.048;7.682;2023-06-10T09:29:21;29.30;50.30
17307;DHT22;8771;48.048;7.682;2023-06-10T09:34:25;29.40;50.30
17307;DHT22;8771;48.048;7.682;2023-06-10T09:39:28;29.50;50.20
17307;DHT22;8771;48.048;7.682;2023-06-10T09:44:31;29.60;50.20
17307;DHT22;8771;48.048;7.682;2023-06-10T09:49:33;29.50;50.90
17307;DHT22;8771;48.048;7.682;2023-06-10T09:54:39;29.20;50.40
17307;DHT22;8771;48.048;7.682;2023-06-10T09:59:42;29.10;50.50
17307;DHT22;8771;48.048;7.682;2023-06-10T10:04:46;29.10;50.50
17307;DHT22;8771;48.048;7.682;2023-06-10T10:09:48;29.10;50.40
17307;DHT22;8771;48.048;7.682;2023-06-10T10:14:52;29.30;50.30
17307;DHT22;8771;48.048;7.682;2023-06-10T10:20:00;29.40;50.20
17307;DHT22;8771;48.048;7.682;2023-06-10T10:25:10;29.50;50.10
17307;DHT22;8771;48.048;7.682;2023-06-10T10:30:14;29.60;50.00
17307;DHT22;8771;48.048;7.682;2023-06-10T10:35:17;29.80;49.90
17307;DHT22;8771;48.048;7.682;2023-06-10T10:40:22;30.00;49.80
17307;DHT22;8771;48.048;7.682;2023-06-10T10:45:27;30.20;49.70
17307;DHT22;8771;48.048;7.682;2023-06-10T10:50:30;30.30;49.60
17307;DHT22;8771;48.048;7.682;2023-06-10T10:55:32;30.20;49.60
17307;DHT22;8771;48.048;7.682;2023-06-10T11:00:36;30.20;49.70
17307;DHT22;8771;48.048;7.682;2023-06-10T11:05:40;30.20;49.70
17307;DHT22;8771;48.048;7.682;2023-06-10T11:10:51;30.00;49.70
17307;DHT22;8771;48.048;7.682;2023-06-10T11:15:57;29.90;49.80
17307;DHT22;8771;48.048;7.682;2023-06-10T11:21:02;29.90;49.70
17307;DHT22;8771;48.048;7.682;2023-06-10T11:26:16;30.00;49.70
17307;DHT22;8771;48.048;7.682;2023-06-10T11:31:20;30.20;49.60
17307;DHT22;8771;48.048;7.682;2023-06-10T11:36:23;30.30;49.30
17307;DHT22;8771;48.048;7.682;2023-06-10T11:41:27;30.60;49.20
17307;DHT22;8771;48.048;7.682;2023-06-10T11:46:32;30.60;49.20
17307;DHT22;8771;48.048;7.682;2023-06-10T11:51:36;30.60;49.20
17307;DHT22;8771;48.048;7.682;2023-06-10T11:56:39;30.70;49.20
17307;DHT22;8771;48.048;7.682;2023-06-10T12:01:46;31.00;48.90
17307;DHT22;8771;48.048;7.682;2023-06-10T12:06:50;31.10;48.80
17307;DHT22;8771;48.048;7.682;2023-06-10T12:11:54;31.20;49.30
17307;DHT22;8771;48.048;7.682;2023-06-10T12:16:58;31.20;48.70
17307;DHT22;8771;48.048;7.682;2023-06-10T12:22:01;31.10;48.80
17307;DHT22;8771;48.048;7.682;2023-06-10T12:27:03;31.20;48.90
17307;DHT22;8771;48.048;7.682;2023-06-10T12:32:07;31.20;48.70
17307;DHT22;8771;48.048;7.682;2023-06-10T12:37:12;31.20;48.90
17307;DHT22;8771;48.048;7.682;2023-06-10T12:42:15;31.10;48.90
17307;DHT22;8771;48.048;7.682;2023-06-10T12:47:18;31.20;48.90
17307;DHT22;8771;48.048;7.682;2023-06-10T12:52:20;31.30;48.80
17307;DHT22;8771;48.048;7.682;2023-06-10T12:57:22;31.40;48.70
17307;DHT22;8771;48.048;7.682;2023-06-10T13:02:25;31.70;48.50
17307;DHT22;8771;48.048;7.682;2023-06-10T13:07:27;31.70;48.40
17307;DHT22;8771;48.048;7.682;2023-06-10T13:12:31;31.60;48.60
17307;DHT22;8771;48.048;7.682;2023-06-10T13:17:34;31.60;48.70
17307;DHT22;8771;48.048;7.682;2023-06-10T13:22:36;31.70;49.30
17307;DHT22;8771;48.048;7.682;2023-06-10T13:27:38;31.80;48.50
17307;DHT22;8771;48.048;7.682;2023-06-10T13:32:41;31.90;48.40
17307;DHT22;8771;48.048;7.682;2023-06-10T13:37:43;32.10;48.20
17307;DHT22;8771;48.048;7.682;2023-06-10T13:42:45;32.30;48.00
17307;DHT22;8771;48.048;7.682;2023-06-10T13:47:52;32.20;48.00
17307;DHT22;8771;48.048;7.682;2023-06-10T13:52:54;31.90;48.30
17307;DHT22;8771;48.048;7.682;2023-06-10T13:57:56;31.50;48.60
17307;DHT22;8771;48.048;7.682;2023-06-10T14:02:59;31.30;48.80
17307;DHT22;8771;48.048;7.682;2023-06-10T14:08:01;31.00;49.00
17307;DHT22;8771;48.048;7.682;2023-06-10T14:13:04;30.90;49.10
17307;DHT22;8771;48.048;7.682;2023-06-10T14:18:07;30.80;49.10
17307;DHT22;8771;48.048;7.682;2023-06-10T14:23:09;30.60;49.10
17307;DHT22;8771;48.048;7.682;2023-06-10T14:28:11;30.70;49.00
17307;DHT22;8771;48.048;7.682;2023-06-10T14:33:14;30.70;48.80
17307;DHT22;8771;48.048;7.682;2023-06-10T14:38:16;30.80;48.80
17307;DHT22;8771;48.048;7.682;2023-06-10T14:43:18;31.20;48.50
17307;DHT22;8771;48.048;7.682;2023-06-10T14:48:22;31.20;48.30
17307;DHT22;8771;48.048;7.682;2023-06-10T14:53:23;31.30;48.30
17307;DHT22;8771;48.048;7.682;2023-06-10T14:58:25;31.40;48.20
17307;DHT22;8771;48.048;7.682;2023-06-10T15:03:29;31.50;48.10
17307;DHT22;8771;48.048;7.682;2023-06-10T15:08:31;31.70;48.00
17307;DHT22;8771;48.048;7.682;2023-06-10T15:13:32;31.70;48.00
17307;DHT22;8771;48.048;7.682;2023-06-10T15:18:36;31.60;48.10
17307;DHT22;8771;48.048;7.682;2023-06-10T15:23:37;31.50;48.20
17307;DHT22;8771;48.048;7.682;2023-06-10T15:28:40;31.50;48.30
17307;DHT22;8771;48.048;7.682;2023-06-10T15:33:43;31.40;48.40
17307;DHT22;8771;48.048;7.682;2023-06-10T15:38:45;31.40;48.30
17307;DHT22;8771;48.048;7.682;2023-06-10T15:43:47;31.50;48.20
17307;DHT22;8771;48.048;7.682;2023-06-10T15:48:51;31.70;47.90
17307;DHT22;8771;48.048;7.682;2023-06-10T15:53:54;31.90;47.90
17307;DHT22;8771;48.048;7.682;2023-06-10T15:58:55;31.90;47.80
17307;DHT22;8771;48.048;7.682;2023-06-10T16:03:59;31.70;47.90
17307;DHT22;8771;48.048;7.682;2023-06-10T16:09:01;31.40;48.10
17307;DHT22;8771;48.048;7.682;2023-06-10T16:14:03;31.10;48.50
17307;DHT22;8771;48.048;7.682;2023-06-10T16:19:06;30.90;48.60
17307;DHT22;8771;48.048;7.682;2023-06-10T16:24:08;30.80;48.80
17307;DHT22;8771;48.048;7.682;2023-06-10T16:29:11;30.70;48.70
17307;DHT22;8771;48.048;7.682;2023-06-10T16:34:14;30.60;48.80
17307;DHT22;8771;48.048;7.682;2023-06-10T16:39:17;30.50;48.80
17307;DHT22;8771;48.048;7.682;2023-06-10T16:44:20;30.40;48.80
17307;DHT22;8771;48.048;7.682;2023-06-10T16:49:23;30.30;48.80
17307;DHT22;8771;48.048;7.682;2023-06-10T16:54:25;30.20;48.90
17307;DHT22;8771;48.048;7.682;2023-06-10T16:59:27;30.10;48.90
17307;DHT22;8771;48.048;7.682;2023-06-10T17:04:30;29.90;48.90
17307;DHT22;8771;48.048;7.682;2023-06-10T17:09:32;29.80;49.00
17307;DHT22;8771;48.048;7.682;2023-06-10T17:14:34;29.70;49.00
17307;DHT22;8771;48.048;7.682;2023-06-10T17:19:37;29.50;49.00
17307;DHT22;8771;48.048;7.682;2023-06-10T17:24:39;29.40;49.10
17307;DHT22;8771;48.048;7.682;2023-06-10T17:29:42;29.20;49.00
17307;DHT22;8771;48.048;7.682;2023-06-10T17:34:45;29.20;49.00
17307;DHT22;8771;48.048;7.682;2023-06-10T17:39:47;29.00;49.00
17307;DHT22;8771;48.048;7.682;2023-06-10T17:44:52;28.90;49.00
17307;DHT22;8771;48.048;7.682;2023-06-10T17:49:55;28.90;49.10
17307;DHT22;8771;48.048;7.682;2023-06-10T17:54:57;28.80;49.00
17307;DHT22;8771;48.048;7.682;2023-06-10T17:59:59;28.70;49.00
17307;DHT22;8771;48.048;7.682;2023-06-10T18:05:02;28.60;49.00
17307;DHT22;8771;48.048;7.682;2023-06-10T18:10:05;28.50;49.00
17307;DHT22;8771;48.048;7.682;2023-06-10T18:15:08;28.40;49.00
17307;DHT22;8771;48.048;7.682;2023-06-10T18:20:12;28.40;49.00
17307;DHT22;8771;48.048;7.682;2023-06-10T18:25:14;28.30;49.00
17307;DHT22;8771;48.048;7.682;2023-06-10T18:30:16;28.20;49.00
17307;DHT22;8771;48.048;7.682;2023-06-10T18:35:20;28.20;49.10
17307;DHT22;8771;48.048;7.682;2023-06-10T18:40:23;28.10;49.10
17307;DHT22;8771;48.048;7.682;2023-06-10T18:45:25;28.00;49.10
17307;DHT22;8771;48.048;7.682;2023-06-10T18:50:28;27.90;49.10
17307;DHT22;8771;48.048;7.682;2023-06-10T18:55:30;27.90;49.10
17307;DHT22;8771;48.048;7.682;2023-06-10T19:00:36;27.90;49.10
17307;DHT22;8771;48.048;7.682;2023-06-10T19:05:39;27.80;49.10
17307;DHT22;8771;48.048;7.682;2023-06-10T19:10:41;27.80;49.10
17307;DHT22;8771;48.048;7.682;2023-06-10T19:15:43;27.70;49.20
17307;DHT22;8771;48.048;7.682;2023-06-10T19:20:47;27.60;49.30
17307;DHT22;8771;48.048;7.682;2023-06-10T19:25:48;27.50;49.40
17307;DHT22;8771;48.048;7.682;2023-06-10T19:30:51;27.40;49.50
17307;DHT22;8771;48.048;7.682;2023-06-10T19:35:54;27.30;49.60
17307;DHT22;8771;48.048;7.682;2023-06-10T19:40:56;27.20;49.60
17307;DHT22;8771;48.048;7.682;2023-06-10T19:45:58;27.10;49.80
17307;DHT22;8771;48.048;7.682;2023-06-10T19:51:01;26.90;49.90
17307;DHT22;8771;48.048;7.682;2023-06-10T19:56:03;26.80;50.00
17307;DHT22;8771;48.048;7.682;2023-06-10T20:01:05;26.60;50.00
17307;DHT22;8771;48.048;7.682;2023-06-10T20:06:08;26.50;50.10
17307;DHT22;8771;48.048;7.682;2023-06-10T20:11:11;26.50;50.10
17307;DHT22;8771;48.048;7.682;2023-06-10T20:16:13;26.50;50.20
17307;DHT22;8771;48.048;7.682;2023-06-10T20:21:16;26.40;50.20
17307;DHT22;8771;48.048;7.682;2023-06-10T20:26:19;26.20;50.20
17307;DHT22;8771;48.048;7.682;2023-06-10T20:31:21;26.20;50.40
17307;DHT22;8771;48.048;7.682;2023-06-10T20:36:27;26.10;50.30
17307;DHT22;8771;48.048;7.682;2023-06-10T20:41:30;26.00;50.40
17307;DHT22;8771;48.048;7.682;2023-06-10T20:46:34;25.90;50.50
17307;DHT22;8771;48.048;7.682;2023-06-10T20:51:38;25.80;50.70
17307;DHT22;8771;48.048;7.682;2023-06-10T20:56:40;25.60;50.70
17307;DHT22;8771;48.048;7.682;2023-06-10T21:01:44;25.50;50.70
17307;DHT22;8771;48.048;7.682;2023-06-10T21:06:48;25.40;51.40
17307;DHT22;8771;48.048;7.682;2023-06-10T21:11:50;25.30;50.90
17307;DHT22;8771;48.048;7.682;2023-06-10T21:16:52;25.10;50.90
17307;DHT22;8771;48.048;7.682;2023-06-10T21:21:55;25.00;51.00
17307;DHT22;8771;48.048;7.682;2023-06-10T21:26:57;24.90;51.10
17307;DHT22;8771;48.048;7.682;2023-06-10T21:31:59;24.80;51.20
17307;DHT22;8771;48.048;7.682;2023-06-10T21:37:03;24.70;51.20
17307;DHT22;8771;48.048;7.682;2023-06-10T21:42:05;24.60;51.30
17307;DHT22;8771;48.048;7.682;2023-06-10T21:47:07;24.40;51.40
17307;DHT22;8771;48.048;7.682;2023-06-10T21:52:11;24.30;51.50
17307;DHT22;8771;48.048;7.682;2023-06-10T21:57:12;24.20;51.70
17307;DHT22;8771;48.048;7.682;2023-06-10T22:02:16;24.00;51.70
17307;DHT22;8771;48.048;7.682;2023-06-10T22:07:20;23.90;51.90
17307;DHT22;8771;48.048;7.682;2023-06-10T22:12:23;23.80;51.90
17307;DHT22;8771;48.048;7.682;2023-06-10T22:17:27;23.70;52.00
17307;DHT22;8771;48.048;7.682;2023-06-10T22:22:31;23.60;52.20
17307;DHT22;8771;48.048;7.682;2023-06-10T22:27:34;23.50;52.20
17307;DHT22;8771;48.048;7.682;2023-06-10T22:32:36;23.50;52.20
17307;DHT22;8771;48.048;7.682;2023-06-10T22:37:39;23.40;52.10
17307;DHT22;8771;48.048;7.682;2023-06-10T22:42:41;23.40;52.10
17307;DHT22;8771;48.048;7.682;2023-06-10T22:47:43;23.30;52.20
17307;DHT22;8771;48.048;7.682;2023-06-10T22:52:46;23.20;52.20
17307;DHT22;8771;48.048;7.682;2023-06-10T22:57:49;23.10;52.20
17307;DHT22;8771;48.048;7.682;2023-06-10T23:02:51;23.00;52.30
17307;DHT22;8771;48.048;7.682;2023-06-10T23:07:54;23.00;52.50
17307;DHT22;8771;48.048;7.682;2023-06-10T23:12:57;22.80;52.50
17307;DHT22;8771;48.048;7.682;2023-06-10T23:18:00;22.70;52.60
17307;DHT22;8771;48.048;7.682;2023-06-10T23:23:04;22.60;52.70
17307;DHT22;8771;48.048;7.682;2023-06-10T23:28:08;22.50;52.80
17307;DHT22;8771;48.048;7.682;2023-06-10T23:33:11;22.40;52.90
17307;DHT22;8771;48.048;7.682;2023-06-10T23:38:15;22.20;53.00
17307;DHT22;8771;48.048;7.682;2023-06-10T23:43:18;22.00;53.20
17307;DHT22;8771;48.048;7.682;2023-06-10T23:48:22;21.90;53.30
17307;DHT22;8771;48.048;7.682;2023-06-10T23:53:25;21.90;53.40
17307;DHT22;8771;48.048;7.682;2023-06-10T23:58:28;21.90;53.30
